createdAt,value
2022-07-27T00:02:16.632Z,100
2022-07-27T00:07:56.823Z,100
2022-07-27T00:13:37.181Z,100
2022-07-27T00:19:17.667Z,100
2022-07-27T00:25:16.701Z,100
2022-07-27T00:30:57.245Z,100
2022-07-27T00:36:38.193Z,100
2022-07-27T00:42:18.337Z,100
2022-07-27T00:47:58.726Z,100
2022-07-27T00:53:39.118Z,100
2022-07-27T00:59:19.446Z,100
2022-07-27T01:05:00.281Z,100
2022-07-27T01:10:43.862Z,100
2022-07-27T01:16:24.772Z,100
2022-07-27T01:22:05.542Z,100
2022-07-27T01:27:45.459Z,100
2022-07-27T01:33:25.873Z,100
2022-07-27T01:39:06.471Z,100
2022-07-27T01:44:46.455Z,100
2022-07-27T01:50:26.706Z,100
2022-07-27T01:56:06.990Z,100
2022-07-27T02:01:47.167Z,100
2022-07-27T02:07:28.385Z,100
2022-07-27T02:13:23.270Z,100
2022-07-27T02:19:05.383Z,100
2022-07-27T02:24:51.270Z,100
2022-07-27T02:30:31.421Z,100
2022-07-27T02:36:11.746Z,100
2022-07-27T02:41:52.421Z,100
2022-07-27T02:47:32.658Z,100
2022-07-27T02:53:12.679Z,100
2022-07-27T02:58:52.854Z,100
2022-07-27T03:04:33.568Z,100
2022-07-27T03:10:14.538Z,100
2022-07-27T03:15:55.140Z,100
2022-07-27T03:21:36.281Z,100
2022-07-27T03:27:16.582Z,100
2022-07-27T03:32:57.105Z,100
2022-07-27T03:38:37.528Z,100
2022-07-27T03:44:17.683Z,100
2022-07-27T03:49:58.179Z,100
2022-07-27T04:05:40.990Z,100
2022-07-27T04:11:23.827Z,100
2022-07-27T04:17:10.492Z,100
2022-07-27T04:23:38.631Z,100
2022-07-27T04:29:21.477Z,100
2022-07-27T04:35:04.453Z,100
2022-07-27T04:40:44.989Z,100
2022-07-27T04:46:26.464Z,100
2022-07-27T04:52:08.410Z,100
2022-07-27T04:57:48.661Z,100
2022-07-27T05:03:28.644Z,100
2022-07-27T05:09:09.616Z,100
2022-07-27T05:14:52.355Z,100
2022-07-27T05:20:33.333Z,100
2022-07-27T05:26:17.227Z,100
2022-07-27T05:31:57.232Z,100
2022-07-27T05:37:38.264Z,100
2022-07-27T05:43:26.950Z,100
2022-07-27T05:49:13.657Z,100
2022-07-27T05:54:57.034Z,100
2022-07-27T06:00:37.787Z,100
2022-07-27T06:06:19.611Z,100
2022-07-27T06:12:00.739Z,100
2022-07-27T06:17:41.981Z,100
2022-07-27T06:23:25.589Z,100
2022-07-27T06:29:11.360Z,100
2022-07-27T06:34:54.885Z,100
2022-07-27T06:40:35.172Z,100
2022-07-27T06:46:15.740Z,100
2022-07-27T06:51:56.968Z,100
2022-07-27T06:57:39.953Z,100
2022-07-27T07:03:20.848Z,100
2022-07-27T07:09:01.737Z,100
2022-07-27T07:14:42.533Z,100
2022-07-27T07:20:21.818Z,100
2022-07-27T07:26:01.179Z,100
2022-07-27T07:31:41.300Z,100
2022-07-27T07:37:22.679Z,100
2022-07-27T07:43:14.391Z,100
2022-07-27T07:48:56.126Z,100
2022-07-27T07:54:37.710Z,100
2022-07-27T08:00:19.133Z,100
2022-07-27T08:05:58.948Z,100
2022-07-27T08:11:43.251Z,100
2022-07-27T08:17:22.594Z,100
2022-07-27T08:23:03.888Z,100
2022-07-27T08:28:50.796Z,100
2022-07-27T08:34:30.538Z,100
2022-07-27T08:40:42.472Z,100
2022-07-27T08:46:30.820Z,100
2022-07-27T08:52:11.376Z,100
2022-07-27T08:57:51.333Z,100
2022-07-27T09:03:31.958Z,100
2022-07-27T09:09:13.964Z,100
2022-07-27T09:14:57.802Z,100
2022-07-27T09:20:40.403Z,100
2022-07-27T09:26:34.594Z,100
2022-07-27T09:32:16.676Z,100
2022-07-27T09:38:16.372Z,100
2022-07-27T09:44:32.694Z,100
2022-07-27T09:50:37.648Z,100
2022-07-27T09:57:42.040Z,100
2022-07-27T10:03:25.603Z,100
2022-07-27T10:11:47.686Z,100
2022-07-27T10:17:28.054Z,100
2022-07-27T10:23:08.891Z,100
2022-07-27T10:29:17.075Z,97
2022-07-27T10:35:16.901Z,92.1
2022-07-27T10:40:57.600Z,97.9
2022-07-27T10:46:37.927Z,98.9
2022-07-27T10:52:39.687Z,95.4
2022-07-27T10:58:20.408Z,80.6
2022-07-27T11:04:05.631Z,72.6
2022-07-27T11:10:08.163Z,77.2
2022-07-27T11:16:29.600Z,73
2022-07-27T11:23:51.728Z,64.3
2022-07-27T11:29:43.645Z,61.1
2022-07-27T11:36:19.044Z,59.4
2022-07-27T11:42:12.486Z,59.1
2022-07-27T11:48:04.368Z,83.3
2022-07-27T11:53:44.689Z,98
2022-07-27T11:59:25.518Z,74.6
2022-07-27T12:05:05.948Z,78.6
2022-07-27T12:10:47.908Z,84.9
2022-07-27T12:16:31.472Z,100
2022-07-27T12:22:23.562Z,100
2022-07-27T12:28:09.577Z,100
2022-07-27T12:34:06.601Z,100
2022-07-27T12:40:15.725Z,95.9
2022-07-27T12:46:06.175Z,92.5
2022-07-27T12:51:58.737Z,82.9
2022-07-27T12:57:56.855Z,78.6
2022-07-27T13:03:44.545Z,80
2022-07-27T13:09:24.613Z,77.7
2022-07-27T13:15:47.424Z,59.4
2022-07-27T13:21:28.163Z,72.5
2022-07-27T13:27:54.979Z,91.3
2022-07-27T13:33:35.348Z,99.1
2022-07-27T13:39:30.709Z,85.3
2022-07-27T13:45:43.843Z,62.7
2022-07-27T13:51:24.904Z,51.1
2022-07-27T13:57:05.873Z,54.8
2022-07-27T14:02:45.901Z,79.6
2022-07-27T14:08:27.233Z,89.3
2022-07-27T14:14:10.119Z,100
2022-07-27T14:19:50.756Z,100
2022-07-27T14:25:31.027Z,100
2022-07-27T14:31:30.731Z,100
2022-07-27T14:37:15.863Z,100
2022-07-27T14:42:58.736Z,100
2022-07-27T14:49:07.023Z,100
2022-07-27T15:06:09.014Z,48.5
2022-07-27T15:17:41.147Z,44.3
2022-07-27T15:23:24.243Z,53.8
2022-07-27T15:29:04.155Z,62.8
2022-07-27T15:34:50.944Z,75.4
2022-07-27T15:40:54.088Z,86.1
2022-07-27T15:46:34.252Z,82.7
2022-07-27T15:52:15.057Z,90.9
2022-07-27T15:57:55.595Z,87.8
2022-07-27T16:03:36.526Z,96.5
2022-07-27T16:09:18.259Z,100
2022-07-27T16:14:58.512Z,100
2022-07-27T16:20:38.708Z,100
2022-07-27T16:26:18.695Z,100
2022-07-27T16:31:58.819Z,100
2022-07-27T16:37:39.032Z,100
2022-07-27T16:43:19.394Z,100
2022-07-27T16:48:59.991Z,100
2022-07-27T16:54:43.428Z,100
2022-07-27T17:00:23.580Z,100
2022-07-27T17:06:09.979Z,100
2022-07-27T17:16:52.618Z,100
2022-07-27T17:22:32.976Z,100
2022-07-27T17:28:13.028Z,100
2022-07-27T17:33:53.236Z,100
2022-07-27T17:39:33.758Z,100
2022-07-27T17:45:13.700Z,100
2022-07-27T17:50:54.154Z,100
2022-07-27T17:56:34.660Z,100
2022-07-27T18:02:15.069Z,100
2022-07-27T18:07:55.981Z,100
2022-07-27T18:13:40.023Z,100
2022-07-27T18:19:20.354Z,100
2022-07-27T18:25:00.975Z,100
2022-07-27T18:30:41.785Z,100
2022-07-27T18:36:24.812Z,100
2022-07-27T18:42:05.082Z,100
2022-07-27T18:47:50.847Z,100
2022-07-27T18:53:33.807Z,100
2022-07-27T18:59:14.930Z,100
2022-07-27T19:04:57.048Z,100
2022-07-27T19:10:37.346Z,100
2022-07-27T19:16:17.526Z,100
2022-07-27T19:21:57.802Z,100
2022-07-27T19:27:41.073Z,100
2022-07-27T19:33:21.720Z,100
2022-07-27T19:39:08.221Z,100
2022-07-27T19:44:50.799Z,100
2022-07-27T19:50:30.876Z,100
2022-07-27T19:56:11.155Z,100
2022-07-27T20:01:51.787Z,100
2022-07-27T20:07:32.769Z,100
2022-07-27T20:13:12.756Z,100
2022-07-27T20:18:52.892Z,100
2022-07-27T20:24:32.951Z,100
2022-07-27T20:30:13.100Z,100
2022-07-27T20:35:53.370Z,100
2022-07-27T20:41:33.950Z,100
2022-07-27T20:47:14.195Z,100
2022-07-27T20:52:54.484Z,100
2022-07-27T20:58:34.742Z,100
2022-07-27T21:04:15.449Z,100
2022-07-27T21:10:09.646Z,100
2022-07-27T21:15:50.502Z,100
2022-07-27T21:21:30.839Z,100
2022-07-27T21:27:12.113Z,100
2022-07-27T21:32:53.498Z,100
2022-07-27T21:38:34.741Z,100
2022-07-27T21:44:15.973Z,100
2022-07-27T21:49:58.640Z,100
2022-07-27T21:55:38.761Z,100
2022-07-27T22:01:19.429Z,100
2022-07-27T22:07:00.166Z,100
2022-07-27T22:12:40.341Z,100
2022-07-27T22:18:20.695Z,100
2022-07-27T22:24:01.148Z,100
2022-07-27T22:29:41.296Z,100
2022-07-27T22:35:21.587Z,100
2022-07-27T22:41:01.897Z,100
2022-07-27T22:46:42.172Z,100
2022-07-27T22:52:22.405Z,100
2022-07-27T22:58:02.572Z,100
2022-07-27T23:03:43.021Z,100
2022-07-27T23:09:23.422Z,100
2022-07-27T23:15:03.719Z,100
2022-07-27T23:20:44.067Z,100
2022-07-27T23:26:26.412Z,100
2022-07-27T23:32:09.223Z,100
2022-07-27T23:37:49.410Z,100
2022-07-27T23:43:31.669Z,100
2022-07-27T23:49:12.470Z,100
2022-07-27T23:54:53.458Z,100
